CEB345 RCKH-RPLL
Flight info
| Callsign | CEB345 |
|---|---|
| Flight time | 1h 26m |
| Altitude | 32000 |
| Route | HCN1C HCN M646 SANRO/N0464F330 W4 NABAL NABAL7R |
| Aircraft | A21N/M-SDE3FGHIRWY/LB1 |
Departure
| Time | 2026-05-06 16:47 |
|---|---|
| Airport | Kaohsiung International Airport (RCKH) |
Arrival
| Time | 2026-05-06 18:13 |
|---|---|
| Airport | Ninoy Aquino International Airport (RPLL) |
| Time | Latitude | Longitude | Altitude | Speed | Heading |
|---|---|---|---|---|---|
| 2026-05-06 16:33 | 22.57323 | 120.34129 | 39 ft | 0 kts | 92° |
| 2026-05-06 16:39 | 22.57324 | 120.34122 | 39 ft | 2 kts | 92° |
| 2026-05-06 16:39 | 22.57324 | 120.34105 | 39 ft | 2 kts | 92° |
| 2026-05-06 16:39 | 22.57325 | 120.34090 | 39 ft | 2 kts | 93° |
| 2026-05-06 16:40 | 22.57325 | 120.34073 | 39 ft | 2 kts | 74° |
| 2026-05-06 16:40 | 22.57317 | 120.34058 | 39 ft | 2 kts | 39° |
| 2026-05-06 16:40 | 22.57309 | 120.34053 | 39 ft | 2 kts | 17° |
| 2026-05-06 16:41 | 22.57295 | 120.34051 | 39 ft | 0 kts | 357° |
| 2026-05-06 16:41 | 22.57294 | 120.34051 | 39 ft | 0 kts | 357° |
| 2026-05-06 16:43 | 22.57297 | 120.34051 | 39 ft | 2 kts | 357° |
| 2026-05-06 16:43 | 22.57345 | 120.34053 | 39 ft | 11 kts | 3° |
| 2026-05-06 16:43 | 22.57391 | 120.34054 | 39 ft | 7 kts | 347° |
| 2026-05-06 16:44 | 22.57415 | 120.33994 | 39 ft | 11 kts | 265° |
| 2026-05-06 16:44 | 22.57416 | 120.33881 | 39 ft | 18 kts | 272° |
| 2026-05-06 16:44 | 22.57420 | 120.33730 | 39 ft | 16 kts | 270° |
| 2026-05-06 16:44 | 22.57455 | 120.33656 | 39 ft | 11 kts | 319° |
| 2026-05-06 16:45 | 22.57534 | 120.33582 | 39 ft | 11 kts | 317° |
| 2026-05-06 16:45 | 22.57574 | 120.33542 | 39 ft | 11 kts | 316° |
| 2026-05-06 16:45 | 22.57633 | 120.33500 | 39 ft | 9 kts | 347° |
| 2026-05-06 16:45 | 22.57701 | 120.33503 | 39 ft | 10 kts | 3° |
| 2026-05-06 16:46 | 22.57754 | 120.33537 | 39 ft | 9 kts | 85° |
| 2026-05-06 16:46 | 22.57753 | 120.33569 | 39 ft | 0 kts | 92° |
| 2026-05-06 16:46 | 22.57746 | 120.33767 | 39 ft | 64 kts | 91° |
| 2026-05-06 16:47 | 22.57723 | 120.34508 | 39 ft | 131 kts | 91° |
| 2026-05-06 16:47 | 22.57686 | 120.35724 | 60 ft | 183 kts | 91° |
| 2026-05-06 16:47 | 22.57645 | 120.37140 | 523 ft | 193 kts | 91° |
| 2026-05-06 16:47 | 22.57530 | 120.38552 | 1325 ft | 189 kts | 104° |
| 2026-05-06 16:48 | 22.56961 | 120.39794 | 2103 ft | 186 kts | 124° |
| 2026-05-06 16:48 | 22.56015 | 120.40817 | 2503 ft | 202 kts | 143° |
| 2026-05-06 16:48 | 22.54671 | 120.41451 | 2883 ft | 220 kts | 166° |
| 2026-05-06 16:48 | 22.53114 | 120.41464 | 3331 ft | 235 kts | 191° |
| 2026-05-06 16:49 | 22.51542 | 120.40710 | 3731 ft | 252 kts | 216° |
| 2026-05-06 16:49 | 22.50219 | 120.39460 | 4420 ft | 255 kts | 224° |
| 2026-05-06 16:49 | 22.48968 | 120.38109 | 5147 ft | 256 kts | 224° |
| 2026-05-06 16:49 | 22.47459 | 120.37023 | 5599 ft | 268 kts | 196° |
| 2026-05-06 16:50 | 22.45571 | 120.36980 | 6084 ft | 277 kts | 167° |
| 2026-05-06 16:50 | 22.43736 | 120.37579 | 6769 ft | 279 kts | 161° |
| 2026-05-06 16:50 | 22.41882 | 120.38255 | 7428 ft | 282 kts | 162° |
| 2026-05-06 16:50 | 22.40003 | 120.38893 | 8049 ft | 285 kts | 164° |
| 2026-05-06 16:51 | 22.38078 | 120.39494 | 8655 ft | 289 kts | 165° |
| 2026-05-06 16:51 | 22.36109 | 120.40073 | 9239 ft | 292 kts | 166° |
| 2026-05-06 16:51 | 22.34124 | 120.40632 | 9804 ft | 295 kts | 167° |
| 2026-05-06 16:51 | 22.32135 | 120.41177 | 10322 ft | 300 kts | 167° |
| 2026-05-06 16:52 | 22.30061 | 120.41735 | 10593 ft | 314 kts | 167° |
| 2026-05-06 16:52 | 22.27879 | 120.42316 | 10826 ft | 328 kts | 167° |
| 2026-05-06 16:52 | 22.25600 | 120.42921 | 11079 ft | 341 kts | 167° |
| 2026-05-06 16:52 | 22.23249 | 120.43544 | 11483 ft | 348 kts | 168° |
| 2026-05-06 16:53 | 22.20902 | 120.44167 | 12000 ft | 351 kts | 168° |
| 2026-05-06 16:53 | 22.18533 | 120.44795 | 12505 ft | 353 kts | 168° |
| 2026-05-06 16:53 | 22.16132 | 120.45429 | 12988 ft | 355 kts | 168° |
| 2026-05-06 16:53 | 22.13697 | 120.46072 | 13474 ft | 358 kts | 168° |
| 2026-05-06 16:54 | 22.11270 | 120.46712 | 13934 ft | 361 kts | 168° |
| 2026-05-06 16:54 | 22.08798 | 120.47362 | 14375 ft | 364 kts | 168° |
| 2026-05-06 16:54 | 22.06329 | 120.48013 | 14813 ft | 366 kts | 168° |
| 2026-05-06 16:54 | 22.03863 | 120.48661 | 15241 ft | 369 kts | 168° |
| 2026-05-06 16:55 | 22.01326 | 120.49329 | 15645 ft | 372 kts | 168° |
| 2026-05-06 16:55 | 21.98813 | 120.49990 | 16051 ft | 374 kts | 168° |
| 2026-05-06 16:55 | 21.96258 | 120.50662 | 16454 ft | 377 kts | 168° |
| 2026-05-06 16:55 | 21.93716 | 120.51332 | 16840 ft | 379 kts | 168° |
| 2026-05-06 16:56 | 21.91127 | 120.52013 | 17218 ft | 381 kts | 167° |
| 2026-05-06 16:56 | 21.88518 | 120.52698 | 17598 ft | 383 kts | 167° |
| 2026-05-06 16:56 | 21.85944 | 120.53376 | 17968 ft | 385 kts | 168° |
| 2026-05-06 16:56 | 21.83308 | 120.54069 | 18333 ft | 387 kts | 167° |
| 2026-05-06 16:57 | 21.80692 | 120.54757 | 18684 ft | 390 kts | 168° |
| 2026-05-06 16:57 | 21.78044 | 120.55452 | 19028 ft | 392 kts | 168° |
| 2026-05-06 16:57 | 21.75367 | 120.56155 | 19367 ft | 394 kts | 168° |
| 2026-05-06 16:57 | 21.72713 | 120.56851 | 19697 ft | 396 kts | 168° |
| 2026-05-06 16:58 | 21.70007 | 120.57561 | 20026 ft | 399 kts | 168° |
| 2026-05-06 16:58 | 21.67289 | 120.58273 | 20357 ft | 401 kts | 168° |
| 2026-05-06 16:58 | 21.64590 | 120.58980 | 20655 ft | 404 kts | 168° |
| 2026-05-06 16:58 | 21.61812 | 120.59707 | 20925 ft | 407 kts | 168° |
| 2026-05-06 16:59 | 21.59053 | 120.60429 | 21221 ft | 410 kts | 168° |
| 2026-05-06 16:59 | 21.56276 | 120.61156 | 21529 ft | 412 kts | 168° |
| 2026-05-06 16:59 | 21.53490 | 120.61886 | 21816 ft | 414 kts | 168° |
| 2026-05-06 16:59 | 21.50650 | 120.62629 | 22099 ft | 417 kts | 168° |
| 2026-05-06 17:00 | 21.47826 | 120.63367 | 22390 ft | 419 kts | 168° |
| 2026-05-06 17:00 | 21.44986 | 120.64108 | 22684 ft | 421 kts | 168° |
| 2026-05-06 17:00 | 21.42125 | 120.64854 | 22990 ft | 422 kts | 168° |
| 2026-05-06 17:00 | 21.39292 | 120.65595 | 23272 ft | 424 kts | 169° |
| 2026-05-06 17:01 | 21.36409 | 120.66348 | 23542 ft | 426 kts | 169° |
| 2026-05-06 17:01 | 21.33508 | 120.67104 | 23821 ft | 428 kts | 169° |
| 2026-05-06 17:01 | 21.30595 | 120.67863 | 24107 ft | 429 kts | 169° |
| 2026-05-06 17:01 | 21.27674 | 120.68626 | 24365 ft | 432 kts | 169° |
| 2026-05-06 17:02 | 21.24743 | 120.69390 | 24620 ft | 434 kts | 169° |
| 2026-05-06 17:02 | 21.21795 | 120.70158 | 24883 ft | 435 kts | 168° |
| 2026-05-06 17:02 | 21.18884 | 120.70917 | 25143 ft | 437 kts | 169° |
| 2026-05-06 17:02 | 21.15912 | 120.71690 | 25405 ft | 439 kts | 168° |
| 2026-05-06 17:03 | 21.12931 | 120.72466 | 25658 ft | 440 kts | 168° |
| 2026-05-06 17:03 | 21.09936 | 120.73246 | 25908 ft | 442 kts | 168° |
| 2026-05-06 17:03 | 21.06930 | 120.74027 | 26151 ft | 444 kts | 168° |
| 2026-05-06 17:03 | 21.03952 | 120.74795 | 26398 ft | 445 kts | 169° |
| 2026-05-06 17:04 | 21.00865 | 120.75356 | 26642 ft | 444 kts | 175° |
| 2026-05-06 17:04 | 20.97770 | 120.75564 | 26879 ft | 444 kts | 182° |
| 2026-05-06 17:04 | 20.94698 | 120.75441 | 27113 ft | 443 kts | 186° |
| 2026-05-06 17:04 | 20.91598 | 120.75194 | 27348 ft | 445 kts | 187° |
| 2026-05-06 17:05 | 20.88535 | 120.74927 | 27572 ft | 446 kts | 187° |
| 2026-05-06 17:05 | 20.85413 | 120.74654 | 27799 ft | 448 kts | 187° |
| 2026-05-06 17:05 | 20.82318 | 120.74389 | 28018 ft | 449 kts | 187° |
| 2026-05-06 17:05 | 20.79162 | 120.74123 | 28235 ft | 451 kts | 187° |
| 2026-05-06 17:06 | 20.76033 | 120.73860 | 28452 ft | 452 kts | 187° |
| 2026-05-06 17:06 | 20.72894 | 120.73599 | 28679 ft | 453 kts | 187° |
| 2026-05-06 17:06 | 20.69741 | 120.73338 | 28911 ft | 454 kts | 186° |
| 2026-05-06 17:06 | 20.66584 | 120.73078 | 29134 ft | 456 kts | 187° |
| 2026-05-06 17:07 | 20.63417 | 120.72819 | 29350 ft | 457 kts | 187° |
| 2026-05-06 17:07 | 20.60241 | 120.72558 | 29561 ft | 459 kts | 187° |
| 2026-05-06 17:07 | 20.57019 | 120.72294 | 29784 ft | 460 kts | 187° |
| 2026-05-06 17:07 | 20.53840 | 120.72033 | 30010 ft | 461 kts | 187° |
| 2026-05-06 17:08 | 20.50607 | 120.71767 | 30277 ft | 462 kts | 187° |
| 2026-05-06 17:08 | 20.47410 | 120.71506 | 30534 ft | 462 kts | 187° |
| 2026-05-06 17:08 | 20.44199 | 120.71242 | 30776 ft | 463 kts | 187° |
| 2026-05-06 17:08 | 20.40992 | 120.70979 | 31008 ft | 464 kts | 187° |
| 2026-05-06 17:09 | 20.37776 | 120.70715 | 31238 ft | 465 kts | 187° |
| 2026-05-06 17:09 | 20.34544 | 120.70449 | 31471 ft | 466 kts | 187° |
| 2026-05-06 17:09 | 20.31311 | 120.70184 | 31688 ft | 467 kts | 187° |
| 2026-05-06 17:09 | 20.28021 | 120.69913 | 31884 ft | 468 kts | 187° |
| 2026-05-06 17:10 | 20.24776 | 120.69649 | 31899 ft | 469 kts | 187° |
| 2026-05-06 17:10 | 20.18290 | 120.69119 | 31903 ft | 469 kts | 187° |
| 2026-05-06 17:11 | 20.11737 | 120.68582 | 31903 ft | 469 kts | 187° |
| 2026-05-06 17:11 | 20.05222 | 120.68049 | 31902 ft | 469 kts | 187° |
| 2026-05-06 17:12 | 19.98721 | 120.67519 | 31898 ft | 470 kts | 187° |
| 2026-05-06 17:12 | 19.92180 | 120.66985 | 31901 ft | 470 kts | 187° |
| 2026-05-06 17:13 | 19.85653 | 120.66452 | 31899 ft | 470 kts | 187° |
| 2026-05-06 17:13 | 19.79106 | 120.65919 | 31898 ft | 470 kts | 187° |
| 2026-05-06 17:14 | 19.72571 | 120.65387 | 31894 ft | 469 kts | 187° |
| 2026-05-06 17:14 | 19.66042 | 120.64857 | 31897 ft | 470 kts | 187° |
| 2026-05-06 17:15 | 19.59513 | 120.64325 | 31892 ft | 470 kts | 187° |
| 2026-05-06 17:15 | 19.52983 | 120.63796 | 31892 ft | 471 kts | 187° |
| 2026-05-06 17:16 | 19.46439 | 120.63263 | 31890 ft | 471 kts | 187° |
| 2026-05-06 17:16 | 19.39903 | 120.62734 | 31888 ft | 470 kts | 187° |
| 2026-05-06 17:17 | 19.33352 | 120.62203 | 31887 ft | 470 kts | 187° |
| 2026-05-06 17:17 | 19.26831 | 120.61676 | 31886 ft | 471 kts | 187° |
| 2026-05-06 17:18 | 19.20384 | 120.61153 | 31885 ft | 471 kts | 187° |
| 2026-05-06 17:18 | 19.13807 | 120.60619 | 31884 ft | 471 kts | 187° |
| 2026-05-06 17:19 | 19.07282 | 120.60092 | 31882 ft | 471 kts | 187° |
| 2026-05-06 17:19 | 19.00723 | 120.59563 | 31879 ft | 470 kts | 187° |
| 2026-05-06 17:20 | 18.94189 | 120.59036 | 31882 ft | 471 kts | 187° |
| 2026-05-06 17:20 | 18.87629 | 120.58507 | 31879 ft | 471 kts | 187° |
| 2026-05-06 17:21 | 18.81071 | 120.57979 | 31882 ft | 471 kts | 187° |
| 2026-05-06 17:21 | 18.74541 | 120.57455 | 31884 ft | 471 kts | 187° |
| 2026-05-06 17:22 | 18.67979 | 120.56928 | 31888 ft | 471 kts | 187° |
| 2026-05-06 17:22 | 18.61441 | 120.56403 | 31893 ft | 471 kts | 187° |
| 2026-05-06 17:23 | 18.54899 | 120.55876 | 31892 ft | 471 kts | 187° |
| 2026-05-06 17:23 | 18.48352 | 120.55350 | 31898 ft | 471 kts | 186° |
| 2026-05-06 17:24 | 18.41800 | 120.54824 | 31898 ft | 471 kts | 186° |
| 2026-05-06 17:24 | 18.35236 | 120.54298 | 31898 ft | 471 kts | 186° |
| 2026-05-06 17:25 | 18.28677 | 120.53773 | 31901 ft | 471 kts | 186° |
| 2026-05-06 17:25 | 18.22257 | 120.53260 | 31905 ft | 471 kts | 186° |
| 2026-05-06 17:26 | 18.15712 | 120.52655 | 31906 ft | 470 kts | 188° |
| 2026-05-06 17:26 | 18.09210 | 120.51886 | 31903 ft | 470 kts | 188° |
| 2026-05-06 17:27 | 18.02681 | 120.51108 | 31904 ft | 470 kts | 188° |
| 2026-05-06 17:27 | 17.96159 | 120.50334 | 31901 ft | 470 kts | 188° |
| 2026-05-06 17:28 | 17.89624 | 120.49561 | 31908 ft | 470 kts | 188° |
| 2026-05-06 17:28 | 17.83095 | 120.48789 | 31913 ft | 470 kts | 188° |
| 2026-05-06 17:29 | 17.76615 | 120.48022 | 31911 ft | 470 kts | 188° |
| 2026-05-06 17:29 | 17.70064 | 120.47247 | 31917 ft | 470 kts | 188° |
| 2026-05-06 17:30 | 17.63582 | 120.46481 | 31918 ft | 470 kts | 188° |
| 2026-05-06 17:30 | 17.56994 | 120.45705 | 31928 ft | 469 kts | 188° |
| 2026-05-06 17:31 | 17.50510 | 120.44940 | 31934 ft | 469 kts | 188° |
| 2026-05-06 17:31 | 17.43973 | 120.44169 | 31942 ft | 470 kts | 188° |
| 2026-05-06 17:32 | 17.37472 | 120.43403 | 31926 ft | 470 kts | 188° |
| 2026-05-06 17:32 | 17.30954 | 120.42635 | 31917 ft | 469 kts | 188° |
| 2026-05-06 17:33 | 17.24451 | 120.41872 | 31917 ft | 469 kts | 188° |
| 2026-05-06 17:33 | 17.17959 | 120.41109 | 31931 ft | 469 kts | 188° |
| 2026-05-06 17:34 | 17.11483 | 120.40347 | 31928 ft | 469 kts | 188° |
| 2026-05-06 17:34 | 17.04973 | 120.39582 | 31938 ft | 469 kts | 188° |
| 2026-05-06 17:35 | 16.98434 | 120.38814 | 31932 ft | 469 kts | 188° |
| 2026-05-06 17:35 | 16.91963 | 120.38053 | 31937 ft | 469 kts | 188° |
| 2026-05-06 17:36 | 16.82174 | 120.36905 | 31943 ft | 470 kts | 188° |
| 2026-05-06 17:36 | 16.76174 | 120.36321 | 31941 ft | 470 kts | 184° |
| 2026-05-06 17:37 | 16.69574 | 120.36350 | 31937 ft | 472 kts | 178° |
| 2026-05-06 17:37 | 16.63011 | 120.37080 | 31938 ft | 473 kts | 174° |
| 2026-05-06 17:38 | 16.56469 | 120.37958 | 31947 ft | 474 kts | 174° |
| 2026-05-06 17:38 | 16.49888 | 120.38836 | 31950 ft | 474 kts | 174° |
| 2026-05-06 17:39 | 16.43334 | 120.39706 | 31954 ft | 474 kts | 174° |
| 2026-05-06 17:39 | 16.36766 | 120.40576 | 31943 ft | 474 kts | 174° |
| 2026-05-06 17:40 | 16.30158 | 120.41450 | 31933 ft | 474 kts | 174° |
| 2026-05-06 17:40 | 16.23630 | 120.42312 | 31919 ft | 474 kts | 174° |
| 2026-05-06 17:41 | 16.17042 | 120.43181 | 31912 ft | 474 kts | 174° |
| 2026-05-06 17:41 | 16.10497 | 120.44044 | 31904 ft | 474 kts | 174° |
| 2026-05-06 17:42 | 16.03937 | 120.44909 | 31902 ft | 474 kts | 174° |
| 2026-05-06 17:42 | 15.97368 | 120.45774 | 31895 ft | 474 kts | 173° |
| 2026-05-06 17:43 | 15.90817 | 120.46638 | 31894 ft | 474 kts | 174° |
| 2026-05-06 17:43 | 15.84240 | 120.47504 | 31894 ft | 474 kts | 174° |
| 2026-05-06 17:44 | 15.77685 | 120.48364 | 31887 ft | 474 kts | 174° |
| 2026-05-06 17:44 | 15.71143 | 120.49224 | 31882 ft | 473 kts | 174° |
| 2026-05-06 17:45 | 15.64591 | 120.50080 | 31884 ft | 472 kts | 174° |
| 2026-05-06 17:45 | 15.58051 | 120.50930 | 31886 ft | 472 kts | 174° |
| 2026-05-06 17:46 | 15.51504 | 120.52029 | 31776 ft | 473 kts | 168° |
| 2026-05-06 17:46 | 15.48329 | 120.52874 | 31419 ft | 466 kts | 164° |
| 2026-05-06 17:46 | 15.45267 | 120.53915 | 31036 ft | 458 kts | 161° |
| 2026-05-06 17:47 | 15.42333 | 120.55132 | 30657 ft | 451 kts | 157° |
| 2026-05-06 17:47 | 15.39510 | 120.56519 | 30279 ft | 444 kts | 153° |
| 2026-05-06 17:47 | 15.36802 | 120.58003 | 29907 ft | 437 kts | 153° |
| 2026-05-06 17:47 | 15.34141 | 120.59483 | 29560 ft | 430 kts | 153° |
| 2026-05-06 17:48 | 15.31553 | 120.60922 | 29229 ft | 423 kts | 153° |
| 2026-05-06 17:48 | 15.28966 | 120.62357 | 28895 ft | 415 kts | 153° |
| 2026-05-06 17:48 | 15.26450 | 120.63749 | 28552 ft | 409 kts | 153° |
| 2026-05-06 17:48 | 15.23933 | 120.65140 | 28272 ft | 401 kts | 153° |
| 2026-05-06 17:49 | 15.21481 | 120.66491 | 28022 ft | 397 kts | 153° |
| 2026-05-06 17:49 | 15.19035 | 120.67839 | 27772 ft | 395 kts | 153° |
| 2026-05-06 17:49 | 15.16622 | 120.69169 | 27527 ft | 394 kts | 152° |
| 2026-05-06 17:49 | 15.14197 | 120.70505 | 27283 ft | 392 kts | 152° |
| 2026-05-06 17:50 | 15.11805 | 120.71824 | 27036 ft | 391 kts | 152° |
| 2026-05-06 17:50 | 15.09383 | 120.73158 | 26695 ft | 389 kts | 152° |
| 2026-05-06 17:50 | 15.07022 | 120.74459 | 26307 ft | 386 kts | 152° |
| 2026-05-06 17:50 | 15.04652 | 120.75764 | 25878 ft | 383 kts | 152° |
| 2026-05-06 17:51 | 15.02278 | 120.77071 | 25436 ft | 380 kts | 152° |
| 2026-05-06 17:51 | 14.99954 | 120.78350 | 25007 ft | 378 kts | 152° |
| 2026-05-06 17:51 | 14.97633 | 120.79626 | 24584 ft | 375 kts | 152° |
| 2026-05-06 17:51 | 14.95267 | 120.80752 | 24126 ft | 372 kts | 165° |
| 2026-05-06 17:52 | 14.92707 | 120.80929 | 23624 ft | 370 kts | 191° |
| 2026-05-06 17:52 | 14.90269 | 120.80146 | 23225 ft | 366 kts | 202° |
| 2026-05-06 17:52 | 14.87894 | 120.79095 | 22696 ft | 368 kts | 204° |
| 2026-05-06 17:52 | 14.85549 | 120.78051 | 22176 ft | 369 kts | 202° |
| 2026-05-06 17:53 | 14.83176 | 120.77041 | 21663 ft | 370 kts | 201° |
| 2026-05-06 17:53 | 14.80776 | 120.76059 | 21140 ft | 371 kts | 201° |
| 2026-05-06 17:53 | 14.78378 | 120.75101 | 20631 ft | 371 kts | 200° |
| 2026-05-06 17:53 | 14.75938 | 120.74141 | 20114 ft | 372 kts | 200° |
| 2026-05-06 17:54 | 14.73544 | 120.73205 | 19607 ft | 369 kts | 200° |
| 2026-05-06 17:54 | 14.71128 | 120.72262 | 19087 ft | 368 kts | 200° |
| 2026-05-06 17:54 | 14.68736 | 120.71330 | 18563 ft | 367 kts | 199° |
| 2026-05-06 17:54 | 14.66373 | 120.70411 | 18049 ft | 363 kts | 199° |
| 2026-05-06 17:55 | 14.64008 | 120.69491 | 17538 ft | 359 kts | 199° |
| 2026-05-06 17:55 | 14.61604 | 120.68941 | 17261 ft | 347 kts | 177° |
| 2026-05-06 17:55 | 14.59341 | 120.69463 | 17040 ft | 332 kts | 152° |
| 2026-05-06 17:55 | 14.57379 | 120.70660 | 16812 ft | 322 kts | 144° |
| 2026-05-06 17:56 | 14.55475 | 120.71960 | 16570 ft | 315 kts | 145° |
| 2026-05-06 17:56 | 14.53472 | 120.73047 | 16300 ft | 311 kts | 164° |
| 2026-05-06 17:56 | 14.51327 | 120.73086 | 16041 ft | 307 kts | 195° |
| 2026-05-06 17:56 | 14.49484 | 120.72013 | 15822 ft | 308 kts | 226° |
| 2026-05-06 17:57 | 14.48307 | 120.70142 | 15604 ft | 309 kts | 246° |
| 2026-05-06 17:57 | 14.47471 | 120.68090 | 15365 ft | 309 kts | 247° |
| 2026-05-06 17:57 | 14.46595 | 120.66089 | 15126 ft | 308 kts | 244° |
| 2026-05-06 17:57 | 14.45622 | 120.64130 | 14790 ft | 308 kts | 242° |
| 2026-05-06 17:58 | 14.44593 | 120.62209 | 14481 ft | 304 kts | 240° |
| 2026-05-06 17:58 | 14.43542 | 120.60306 | 14194 ft | 300 kts | 240° |
| 2026-05-06 17:58 | 14.42520 | 120.58473 | 13919 ft | 295 kts | 240° |
| 2026-05-06 17:58 | 14.41506 | 120.56657 | 13647 ft | 291 kts | 240° |
| 2026-05-06 17:59 | 14.40501 | 120.54856 | 13392 ft | 286 kts | 240° |
| 2026-05-06 17:59 | 14.39521 | 120.53098 | 13220 ft | 276 kts | 240° |
| 2026-05-06 17:59 | 14.38582 | 120.51415 | 12972 ft | 272 kts | 240° |
| 2026-05-06 17:59 | 14.37637 | 120.49719 | 12635 ft | 270 kts | 240° |
| 2026-05-06 18:00 | 14.36697 | 120.48033 | 12207 ft | 273 kts | 240° |
| 2026-05-06 18:00 | 14.35748 | 120.46332 | 11754 ft | 275 kts | 239° |
| 2026-05-06 18:00 | 14.34580 | 120.44798 | 11259 ft | 275 kts | 213° |
| 2026-05-06 18:00 | 14.32819 | 120.44113 | 10708 ft | 270 kts | 178° |
| 2026-05-06 18:01 | 14.31048 | 120.44550 | 10113 ft | 261 kts | 147° |
| 2026-05-06 18:01 | 14.29559 | 120.45560 | 9578 ft | 258 kts | 143° |
| 2026-05-06 18:01 | 14.28092 | 120.46554 | 9315 ft | 244 kts | 145° |
| 2026-05-06 18:01 | 14.26669 | 120.47462 | 8952 ft | 237 kts | 146° |
| 2026-05-06 18:02 | 14.25242 | 120.48334 | 8470 ft | 235 kts | 146° |
| 2026-05-06 18:02 | 14.23885 | 120.49265 | 7982 ft | 233 kts | 139° |
| 2026-05-06 18:02 | 14.22879 | 120.50502 | 7486 ft | 224 kts | 105° |
| 2026-05-06 18:02 | 14.22690 | 120.52028 | 7163 ft | 213 kts | 86° |
| 2026-05-06 18:03 | 14.23129 | 120.53464 | 6707 ft | 212 kts | 56° |
| 2026-05-06 18:03 | 14.24041 | 120.54631 | 6266 ft | 211 kts | 52° |
| 2026-05-06 18:03 | 14.24958 | 120.55817 | 5811 ft | 209 kts | 54° |
| 2026-05-06 18:03 | 14.25791 | 120.57025 | 5373 ft | 208 kts | 58° |
| 2026-05-06 18:04 | 14.26555 | 120.58302 | 4968 ft | 208 kts | 60° |
| 2026-05-06 18:04 | 14.27287 | 120.59563 | 4766 ft | 205 kts | 60° |
| 2026-05-06 18:04 | 14.28030 | 120.60838 | 4654 ft | 207 kts | 60° |
| 2026-05-06 18:04 | 14.28769 | 120.62110 | 4532 ft | 207 kts | 60° |
| 2026-05-06 18:05 | 14.29492 | 120.63395 | 4406 ft | 207 kts | 61° |
| 2026-05-06 18:05 | 14.30206 | 120.64679 | 4319 ft | 206 kts | 61° |
| 2026-05-06 18:05 | 14.30928 | 120.65982 | 4303 ft | 208 kts | 61° |
| 2026-05-06 18:05 | 14.31645 | 120.67279 | 4204 ft | 207 kts | 61° |
| 2026-05-06 18:06 | 14.32354 | 120.68564 | 4097 ft | 206 kts | 61° |
| 2026-05-06 18:06 | 14.33051 | 120.69824 | 3800 ft | 203 kts | 61° |
| 2026-05-06 18:06 | 14.33755 | 120.71101 | 3535 ft | 205 kts | 61° |
| 2026-05-06 18:06 | 14.34461 | 120.72379 | 3317 ft | 205 kts | 61° |
| 2026-05-06 18:07 | 14.35167 | 120.73656 | 3099 ft | 204 kts | 61° |
| 2026-05-06 18:07 | 14.35866 | 120.74921 | 2975 ft | 203 kts | 61° |
| 2026-05-06 18:07 | 14.36572 | 120.76197 | 2974 ft | 203 kts | 60° |
| 2026-05-06 18:07 | 14.37270 | 120.77457 | 2969 ft | 203 kts | 60° |
| 2026-05-06 18:08 | 14.37976 | 120.78732 | 2972 ft | 203 kts | 60° |
| 2026-05-06 18:08 | 14.38681 | 120.80004 | 2968 ft | 203 kts | 60° |
| 2026-05-06 18:08 | 14.39382 | 120.81270 | 2970 ft | 202 kts | 60° |
| 2026-05-06 18:08 | 14.40083 | 120.82533 | 2970 ft | 202 kts | 60° |
| 2026-05-06 18:09 | 14.40779 | 120.83788 | 2964 ft | 203 kts | 60° |
| 2026-05-06 18:09 | 14.41476 | 120.85046 | 2954 ft | 195 kts | 60° |
| 2026-05-06 18:09 | 14.42116 | 120.86197 | 2906 ft | 176 kts | 61° |
| 2026-05-06 18:09 | 14.42719 | 120.87284 | 2765 ft | 172 kts | 61° |
| 2026-05-06 18:10 | 14.43303 | 120.88339 | 2577 ft | 169 kts | 60° |
| 2026-05-06 18:10 | 14.43900 | 120.89414 | 2363 ft | 169 kts | 61° |
| 2026-05-06 18:10 | 14.44460 | 120.90423 | 2109 ft | 155 kts | 60° |
| 2026-05-06 18:10 | 14.44988 | 120.91373 | 1887 ft | 150 kts | 60° |
| 2026-05-06 18:11 | 14.45505 | 120.92306 | 1700 ft | 149 kts | 61° |
| 2026-05-06 18:11 | 14.46020 | 120.93232 | 1517 ft | 149 kts | 61° |
| 2026-05-06 18:11 | 14.46537 | 120.94163 | 1335 ft | 148 kts | 62° |
| 2026-05-06 18:11 | 14.47065 | 120.95113 | 1146 ft | 148 kts | 62° |
| 2026-05-06 18:12 | 14.47574 | 120.96030 | 963 ft | 147 kts | 62° |
| 2026-05-06 18:12 | 14.48084 | 120.96950 | 775 ft | 147 kts | 62° |
| 2026-05-06 18:12 | 14.48593 | 120.97866 | 591 ft | 147 kts | 62° |
| 2026-05-06 18:12 | 14.49111 | 120.98782 | 390 ft | 146 kts | 62° |
| 2026-05-06 18:13 | 14.49616 | 120.99696 | 216 ft | 145 kts | 61° |
| 2026-05-06 18:13 | 14.50117 | 121.00600 | 83 ft | 138 kts | 62° |
| 2026-05-06 18:13 | 14.50512 | 121.01324 | 82 ft | 88 kts | 62° |
| 2026-05-06 18:13 | 14.50743 | 121.01691 | 82 ft | 46 kts | 45° |
| 2026-05-06 18:14 | 14.50846 | 121.01775 | 82 ft | 8 kts | 31° |
| 2026-05-06 18:14 | 14.50903 | 121.01772 | 82 ft | 6 kts | 320° |
| 2026-05-06 18:14 | 14.50903 | 121.01771 | 82 ft | 0 kts | 319° |
| 2026-05-06 18:15 | 14.50904 | 121.01771 | 82 ft | 0 kts | 319° |
| 2026-05-06 18:15 | 14.50939 | 121.01737 | 82 ft | 14 kts | 315° |
| 2026-05-06 18:15 | 14.51034 | 121.01638 | 82 ft | 20 kts | 314° |
| 2026-05-06 18:16 | 14.51137 | 121.01533 | 82 ft | 20 kts | 315° |
| 2026-05-06 18:16 | 14.51222 | 121.01445 | 82 ft | 12 kts | 316° |
| 2026-05-06 18:16 | 14.51298 | 121.01448 | 82 ft | 12 kts | 40° |
| 2026-05-06 18:16 | 14.51355 | 121.01517 | 82 ft | 12 kts | 49° |
| 2026-05-06 18:17 | 14.51416 | 121.01580 | 82 ft | 12 kts | 33° |
| 2026-05-06 18:17 | 14.51485 | 121.01558 | 82 ft | 8 kts | 303° |
| 2026-05-06 18:17 | 14.51530 | 121.01512 | 82 ft | 5 kts | 316° |
| 2026-05-06 18:17 | 14.51547 | 121.01502 | 82 ft | 2 kts | 358° |
| 2026-05-06 18:18 | 14.51563 | 121.01508 | 82 ft | 2 kts | 41° |
| 2026-05-06 18:18 | 14.51575 | 121.01524 | 82 ft | 2 kts | 53° |
| 2026-05-06 18:18 | 14.51588 | 121.01541 | 82 ft | 2 kts | 47° |
| 2026-05-06 18:18 | 14.51603 | 121.01556 | 82 ft | 3 kts | 45° |
| 2026-05-06 18:19 | 14.51615 | 121.01569 | 82 ft | 0 kts | 44° |